createdAt,value
2023-01-12T00:04:46.369Z,0
2023-01-12T00:11:09.431Z,0
2023-01-12T00:17:29.388Z,0
2023-01-12T00:23:52.395Z,0
2023-01-12T00:30:12.425Z,0
2023-01-12T00:36:35.377Z,0
2023-01-12T00:42:55.419Z,0
2023-01-12T00:49:18.419Z,0
2023-01-12T00:55:38.434Z,0
2023-01-12T01:02:01.417Z,0
2023-01-12T01:08:21.360Z,0
2023-01-12T01:14:44.367Z,0
2023-01-12T01:21:04.456Z,0
2023-01-12T01:27:27.357Z,0
2023-01-12T01:33:47.477Z,0
2023-01-12T01:40:10.376Z,0
2023-01-12T01:46:30.383Z,0
2023-01-12T01:52:53.370Z,0
2023-01-12T01:59:13.440Z,0
2023-01-12T02:05:36.334Z,0
2023-01-12T02:11:56.390Z,0
2023-01-12T02:18:19.350Z,0
2023-01-12T02:24:39.391Z,0
2023-01-12T02:31:02.449Z,0
2023-01-12T02:37:22.405Z,0
2023-01-12T02:43:45.365Z,0
2023-01-12T02:50:05.440Z,0
2023-01-12T02:56:28.391Z,0
2023-01-12T03:02:48.451Z,0
2023-01-12T03:09:11.504Z,0
2023-01-12T03:15:31.417Z,0
2023-01-12T03:21:54.360Z,0
2023-01-12T03:28:14.492Z,0
2023-01-12T03:34:37.343Z,0
2023-01-12T03:40:57.472Z,0
2023-01-12T03:47:20.389Z,0
2023-01-12T03:53:40.397Z,0
2023-01-12T04:00:03.357Z,0
2023-01-12T04:06:23.485Z,0
2023-01-12T04:12:46.367Z,0
2023-01-12T04:35:34.372Z,0
2023-01-12T04:41:54.322Z,0
2023-01-12T04:48:17.367Z,0
2023-01-12T04:54:37.342Z,0
2023-01-12T05:01:00.415Z,0
2023-01-12T05:07:20.351Z,0
2023-01-12T05:13:43.394Z,0
2023-01-12T05:20:03.361Z,0
2023-01-12T05:26:26.528Z,0
2023-01-12T05:32:46.449Z,0
2023-01-12T05:39:09.377Z,0
2023-01-12T05:45:29.357Z,0
2023-01-12T05:51:52.476Z,0
2023-01-12T05:58:12.368Z,0
2023-01-12T06:04:44.501Z,0
2023-01-12T06:11:04.346Z,0
2023-01-12T06:17:42.327Z,0
2023-01-12T06:24:02.370Z,0
2023-01-12T06:30:25.373Z,0
2023-01-12T06:36:45.467Z,0
2023-01-12T06:43:08.566Z,0
2023-01-12T06:49:28.446Z,0
2023-01-12T06:55:51.440Z,0
2023-01-12T07:02:11.413Z,0
2023-01-12T07:08:34.467Z,1
2023-01-12T07:14:54.436Z,2
2023-01-12T07:21:17.343Z,3
2023-01-12T07:27:37.463Z,6
2023-01-12T07:34:00.379Z,8
2023-01-12T07:40:20.431Z,14
2023-01-12T07:46:43.500Z,23
2023-01-12T07:53:03.396Z,41
2023-01-12T07:59:26.483Z,56
2023-01-12T08:05:46.479Z,66
2023-01-12T08:12:09.420Z,114
2023-01-12T08:18:29.407Z,132
2023-01-12T08:24:52.451Z,148
2023-01-12T08:31:12.518Z,162
2023-01-12T08:37:35.394Z,204
2023-01-12T08:43:55.401Z,203
2023-01-12T08:50:18.434Z,229
2023-01-12T08:56:38.354Z,220
2023-01-12T09:03:01.512Z,271
2023-01-12T09:09:21.383Z,294
2023-01-12T09:15:52.203Z,304
2023-01-12T09:39:43.356Z,418
2023-01-12T09:46:03.472Z,367
2023-01-12T09:52:26.605Z,430
2023-01-12T09:58:46.585Z,482
2023-01-12T10:05:10.170Z,402
2023-01-12T10:11:30.507Z,423
2023-01-12T10:17:53.455Z,402
2023-01-12T10:24:13.343Z,531
2023-01-12T10:30:36.350Z,423
2023-01-12T10:36:56.360Z,411
2023-01-12T10:43:20.298Z,412
2023-01-12T10:49:39.402Z,417
2023-01-12T10:56:02.391Z,431
2023-01-12T11:02:22.640Z,352
2023-01-12T11:08:45.374Z,309
2023-01-12T11:15:05.427Z,382
2023-01-12T11:21:28.405Z,414
2023-01-12T11:27:48.373Z,498
2023-01-12T11:34:11.449Z,617
2023-01-12T11:40:31.362Z,431
2023-01-12T11:46:54.444Z,562
2023-01-12T11:53:14.423Z,591
2023-01-12T11:59:37.398Z,636
2023-01-12T12:05:57.403Z,706
2023-01-12T12:12:20.392Z,539
2023-01-12T12:18:40.381Z,551
2023-01-12T12:25:03.389Z,632
2023-01-12T12:31:23.476Z,659
2023-01-12T12:37:46.408Z,631
2023-01-12T12:44:06.367Z,584
2023-01-12T12:50:29.398Z,533
2023-01-12T12:56:49.393Z,536
2023-01-12T13:03:12.457Z,575
2023-01-12T13:09:32.680Z,545
2023-01-12T13:15:55.755Z,475
2023-01-12T13:22:15.388Z,415
2023-01-12T13:28:38.371Z,469
2023-01-12T13:34:58.391Z,345
2023-01-12T13:41:21.445Z,388
2023-01-12T13:47:41.380Z,404
2023-01-12T13:54:04.384Z,290
2023-01-12T14:00:24.428Z,231
2023-01-12T14:06:47.398Z,225
2023-01-12T14:13:07.417Z,160
2023-01-12T14:19:30.422Z,98
2023-01-12T14:25:50.581Z,98
2023-01-12T14:32:13.336Z,103
2023-01-12T14:38:33.361Z,115
2023-01-12T15:02:15.386Z,99
2023-01-12T15:08:38.356Z,86
2023-01-12T15:14:58.390Z,52
2023-01-12T15:21:21.472Z,42
2023-01-12T15:27:41.342Z,37
2023-01-12T15:34:04.384Z,29
2023-01-12T15:40:24.435Z,17
2023-01-12T15:46:47.418Z,14
2023-01-12T15:53:07.350Z,10
2023-01-12T15:59:30.526Z,4
2023-01-12T16:05:50.404Z,2
2023-01-12T16:12:13.572Z,1
2023-01-12T16:18:02.346Z,1
2023-01-12T16:24:22.368Z,0
2023-01-12T16:30:45.331Z,0
2023-01-12T16:37:05.391Z,0
2023-01-12T16:43:28.541Z,0
2023-01-12T16:49:48.340Z,0
2023-01-12T16:56:11.408Z,0
2023-01-12T17:02:31.643Z,0
2023-01-12T17:08:54.413Z,0
2023-01-12T17:15:14.449Z,0
2023-01-12T17:21:37.363Z,0
2023-01-12T17:27:57.372Z,0
2023-01-12T17:34:20.423Z,0
2023-01-12T17:40:40.326Z,0
2023-01-12T17:47:03.519Z,0
2023-01-12T17:53:23.410Z,0
2023-01-12T17:59:46.479Z,0
2023-01-12T18:06:11.625Z,0
2023-01-12T18:12:29.423Z,0
2023-01-12T18:18:49.405Z,0
2023-01-12T18:25:12.357Z,0
2023-01-12T18:31:32.441Z,0
2023-01-12T18:37:55.359Z,0
2023-01-12T18:44:15.346Z,0
2023-01-12T18:50:38.443Z,0
2023-01-12T18:56:58.343Z,0
2023-01-12T19:03:21.450Z,0
2023-01-12T19:09:41.362Z,0
2023-01-12T19:16:04.445Z,0
2023-01-12T19:22:24.360Z,0
2023-01-12T19:28:47.360Z,0
2023-01-12T19:35:11.159Z,0
2023-01-12T19:41:30.370Z,0
2023-01-12T19:47:50.376Z,0
2023-01-12T19:54:13.390Z,0
2023-01-12T20:00:33.358Z,0
2023-01-12T20:06:56.478Z,0
2023-01-12T20:13:16.416Z,0
2023-01-12T20:19:39.348Z,0
2023-01-12T20:25:59.439Z,0
2023-01-12T20:32:22.437Z,0
2023-01-12T20:38:42.406Z,0
2023-01-12T20:45:05.377Z,0
2023-01-12T20:51:25.366Z,0
2023-01-12T20:57:48.480Z,0
2023-01-12T21:04:08.355Z,0
2023-01-12T21:10:31.363Z,0
2023-01-12T21:16:51.478Z,0
2023-01-12T21:23:14.387Z,0
2023-01-12T21:47:44.919Z,0
2023-01-12T21:54:04.340Z,0
2023-01-12T22:00:27.389Z,0
2023-01-12T22:06:47.382Z,0
2023-01-12T22:13:10.361Z,0
2023-01-12T22:19:30.387Z,0
2023-01-12T22:25:53.453Z,0
2023-01-12T22:32:13.368Z,0
2023-01-12T22:38:36.400Z,0
2023-01-12T22:44:56.402Z,0
2023-01-12T22:51:19.399Z,0
2023-01-12T22:57:39.353Z,0
2023-01-12T23:20:37.719Z,0
2023-01-12T23:26:57.665Z,0
2023-01-12T23:33:20.721Z,0
2023-01-12T23:39:40.747Z,0
2023-01-12T23:46:03.848Z,0
2023-01-12T23:52:24.889Z,0
2023-01-12T23:58:48.697Z,0
